Airfield :
LOGIN :

Register | Disclaimer

   EN    FR    IT 

 










Legend :    VFR   Marginal VFR   IFR   Intensive IFR   Very Intensive IFR
Visi :
Ceiling :
>= 8 km
>= 3000ft
5 to 8 km
1000 to 3000 ft
1500m to 5 km
500 to 1000 ft
800 to 1500m
200 to 500 ft
< 800m
< 200 ft
Symbols :   Thunderstorms  Fog  Heavy snow  Heavy precipitations  Wind > 20 kt
SIGMETs :     Misc.  Thunderstorms  Icing  Turbulence  Mountain Waves  Volcanic Ashes







- Airport Elevation : 352 ft
- IATA code : KSD


ESOK - Karlstad

CURRENT METAR :
  • 210120Z AUTO 36002KT 4500 BR FEW002/// BKN005/// OVC007/// M00/M00 Q1033

EXPIRED METARs :
  • 210050Z AUTO 01004KT 5000 BR FEW008/// OVC009/// M00/M00 Q1033
  • 210020Z AUTO VRB01KT 4900 BR FEW007/// OVC009/// M01/M01 Q1033
  • 202350Z AUTO 36002KT 4100 BR OVC008/// M01/M01 Q1033
  • 202320Z AUTO 36002KT 7000 OVC008/// M01/M02 Q1034
  • 202250Z AUTO 02003KT 9999 OVC009/// M02/M02 Q1033

Expired Forecast.
No reported NOTAMs for that airfield.



MET'MAP, your aeronautical weather chart ! - Copyright ORBIFLY December 2007 - Disclaimer

ORBIFLY MET'MAP TEAM :

Programming & Development : Alexandra Zaïnal
Concept & Development : Baudouin d'Aumeries
Co-Development & Prog : Marc-Olivier Méhu
Technical & hardware support : Manuel Goepfert

Contact : metmap@orbifly.com




SOURCES & CREDITS :

   NOAA